Time;durP1;ratioP1;P1;durP2;ratioP2;P2;SDS_P1;SDS_P2;PMS_P1;PMS_P2;Temp;Humidity;BMP_temperature;BMP_pressure;BME280_temperature;BME280_humidity;BME280_pressure;Samples;Min_cycle;Max_cycle;Signal;HPM_P1;HPM_P2
2022/03/16 00:01:54;;;;;;;6.05;3.33;;;;;;;7.75;70.02;102518.78;5094939;27;114021;-36
2022/03/16 00:04:20;;;;;;;5.07;2.67;;;;;;;7.75;69.31;102523.31;5094831;27;96834;-36
2022/03/16 00:06:45;;;;;;;4.72;2.70;;;;;;;7.70;69.33;102504.53;5096400;27;96814;-36
2022/03/16 00:09:10;;;;;;;6.47;3.45;;;;;;;7.78;69.66;102523.22;5097538;27;112835;-36
2022/03/16 00:11:36;;;;;;;8.65;2.55;;;;;;;7.71;69.54;102503.59;5097184;27;125376;-36
2022/03/16 00:14:01;;;;;;;4.78;2.42;;;;;;;7.69;69.52;102507.25;5098850;27;96564;-36
2022/03/16 00:16:27;;;;;;;6.10;2.95;;;;;;;7.70;69.56;102519.78;5099037;27;96754;-35
2022/03/16 00:18:52;;;;;;;5.28;2.83;;;;;;;7.70;69.81;102519.78;5097461;27;124698;-35
2022/03/16 00:21:17;;;;;;;5.03;2.85;;;;;;;7.64;69.85;102521.72;5098432;27;97859;-36
2022/03/16 00:23:43;;;;;;;7.22;2.92;;;;;;;7.64;69.66;102524.41;5098796;27;96623;-36
2022/03/16 00:26:08;;;;;;;6.45;3.55;;;;;;;7.62;69.40;102533.44;5098796;27;96538;-36
2022/03/16 00:28:34;;;;;;;5.90;3.33;;;;;;;7.59;69.69;102533.53;5097473;27;119842;-36
2022/03/16 00:30:59;;;;;;;7.78;3.08;;;;;;;7.48;69.52;102520.25;5079411;27;100635;-36
2022/03/16 00:33:25;;;;;;;5.35;2.90;;;;;;;7.50;69.76;102534.59;5097851;27;96602;-36
2022/03/16 00:35:50;;;;;;;5.70;3.10;;;;;;;7.48;70.29;102527.47;5097557;27;110754;-36
2022/03/16 00:38:16;;;;;;;5.15;2.97;;;;;;;7.45;69.73;102531.13;5097537;27;99399;-36
2022/03/16 00:40:42;;;;;;;4.80;2.65;;;;;;;7.43;69.64;102531.16;5079332;27;100926;-36
2022/03/16 00:43:07;;;;;;;8.18;2.70;;;;;;;7.38;70.05;102518.69;5098259;27;96512;-36
2022/03/16 00:45:33;;;;;;;3.85;2.42;;;;;;;7.39;70.03;102524.06;5098035;27;96701;-36
2022/03/16 00:47:58;;;;;;;6.18;3.47;;;;;;;7.40;70.09;102538.44;5097210;27;123398;-36
2022/03/16 00:50:23;;;;;;;7.95;3.05;;;;;;;7.37;69.92;102527.72;5098187;27;99415;-36
2022/03/16 00:52:49;;;;;;;8.85;4.03;;;;;;;7.28;70.32;102522.50;5098359;27;96541;-36
2022/03/16 00:55:14;;;;;;;6.65;3.38;;;;;;;7.32;69.82;102525.13;5098054;27;96791;-36
2022/03/16 00:57:40;;;;;;;6.88;3.78;;;;;;;7.31;70.11;102527.84;5097207;27;97830;-35
2022/03/16 01:00:06;;;;;;;7.03;3.25;;;;;;;7.30;69.82;102529.66;5097471;27;99226;-35
2022/03/16 01:02:32;;;;;;;6.35;2.97;;;;;;;7.28;69.90;102525.22;5079348;27;96549;-36
2022/03/16 01:04:58;;;;;;;6.25;3.70;;;;;;;7.23;69.72;102510.00;5078880;27;96826;-35
2022/03/16 01:07:23;;;;;;;6.47;3.78;;;;;;;7.27;70.09;102521.63;5078781;27;100897;-36
2022/03/16 01:09:49;;;;;;;7.25;3.42;;;;;;;7.21;70.13;102511.84;5097552;27;97705;-36
2022/03/16 01:12:14;;;;;;;6.40;3.45;;;;;;;7.15;70.50;102503.91;5098013;27;96333;-36
2022/03/16 01:14:40;;;;;;;6.03;3.78;;;;;;;7.21;70.18;102517.25;5098394;27;96712;-36
2022/03/16 01:17:05;;;;;;;6.20;3.63;;;;;;;7.17;70.52;102515.53;5097572;27;98130;-36
2022/03/16 01:19:31;;;;;;;5.25;2.97;;;;;;;7.10;70.93;102507.59;5096179;27;97838;-36
2022/03/16 01:21:57;;;;;;;9.18;4.03;;;;;;;7.10;71.11;102502.22;5097338;27;96421;-36
2022/03/16 01:24:22;;;;;;;6.75;2.95;;;;;;;7.06;70.77;102500.53;5097537;27;96715;-36
2022/03/16 01:26:47;;;;;;;5.47;3.05;;;;;;;7.05;71.57;102505.00;5097421;27;99511;-35
2022/03/16 01:29:13;;;;;;;5.60;3.05;;;;;;;7.05;71.13;102507.69;5097351;27;99379;-35
2022/03/16 01:31:38;;;;;;;9.02;3.70;;;;;;;7.07;70.78;102502.28;5097361;27;96523;-36
2022/03/16 01:34:04;;;;;;;4.25;2.85;;;;;;;7.01;71.08;102506.00;5097410;27;96864;-35
2022/03/16 01:36:29;;;;;;;5.10;2.88;;;;;;;7.02;71.20;102511.34;5078536;27;100840;-35
2022/03/16 01:38:55;;;;;;;6.15;3.38;;;;;;;6.94;72.10;102488.19;5096725;27;113235;-36
2022/03/16 01:41:20;;;;;;;6.03;3.55;;;;;;;7.00;71.51;102501.50;5096387;27;109643;-36
2022/03/16 01:43:45;;;;;;;9.82;3.85;;;;;;;6.93;71.33;102489.09;5096066;27;117512;-36
2022/03/16 01:46:11;;;;;;;6.72;3.70;;;;;;;6.97;71.52;102499.75;5096090;27;111694;-35
2022/03/16 01:48:37;;;;;;;5.82;3.45;;;;;;;6.90;71.60;102489.16;5096985;27;97272;-36
2022/03/16 01:51:03;;;;;;;4.55;2.88;;;;;;;6.87;71.80;102479.31;5097046;27;96454;-36
2022/03/16 01:53:28;;;;;;;9.68;4.63;;;;;;;6.93;72.03;102497.16;5078439;27;96900;-35
2022/03/16 01:55:54;;;;;;;10.18;4.22;;;;;;;6.89;71.57;102493.66;5096598;27;99192;-35
2022/03/16 01:58:19;;;;;;;6.68;3.85;;;;;;;6.79;72.15;102479.50;5096088;27;118704;-35
2022/03/16 02:00:45;;;;;;;7.00;3.97;;;;;;;6.85;71.66;102488.38;5097134;27;96520;-35
2022/03/16 02:03:11;;;;;;;6.18;3.72;;;;;;;6.77;72.42;102484.00;5096953;27;96771;-36
2022/03/16 02:05:37;;;;;;;5.72;3.53;;;;;;;6.83;72.28;102490.19;5077405;27;101094;-36
2022/03/16 02:08:08;;;;;;;7.25;3.60;;;;;;;6.74;72.68;102473.28;5077820;27;102408;-36
2022/03/16 02:10:33;;;;;;;13.38;4.03;;;;;;;6.70;72.66;102468.88;5096331;27;96496;-35
2022/03/16 02:12:59;;;;;;;7.15;3.85;;;;;;;6.68;72.50;102465.34;5097021;27;96741;-36
2022/03/16 02:15:24;;;;;;;9.02;4.03;;;;;;;6.72;73.05;102482.31;5096566;27;97867;-35
2022/03/16 02:17:53;;;;;;;12.00;5.30;;;;;;;6.70;73.03;102473.41;5096454;27;97761;-36
2022/03/16 02:20:18;;;;;;;7.25;4.28;;;;;;;6.67;73.35;102476.13;5078204;27;96665;-36
2022/03/16 02:22:58;;;;;;;5.90;4.00;;;;;;;6.69;72.62;102472.47;5096574;27;96855;-36
2022/03/16 02:25:25;;;;;;;7.65;3.33;;;;;;;6.63;73.08;102458.28;5077566;27;100764;-35
2022/03/16 02:27:52;;;;;;;8.35;4.15;;;;;;;6.69;72.51;102460.84;5078166;27;100862;-35
2022/03/16 02:30:19;;;;;;;9.35;4.20;;;;;;;6.62;72.70;102453.78;5096180;27;96567;-35
2022/03/16 02:32:45;;;;;;;10.68;5.28;;;;;;;6.63;72.66;102460.97;5077780;27;96801;-35
2022/03/16 02:35:10;;;;;;;8.45;4.30;;;;;;;6.55;72.67;102456.63;5095615;27;99516;-35
2022/03/16 02:37:37;;;;;;;10.98;5.00;;;;;;;6.56;73.46;102470.97;5095936;27;103873;-36
2022/03/16 02:40:03;;;;;;;8.35;4.50;;;;;;;6.51;74.46;102468.34;5077912;27;96762;-36
2022/03/16 02:42:28;;;;;;;7.40;3.92;;;;;;;6.56;73.62;102476.34;5096417;27;96805;-36
2022/03/16 02:44:53;;;;;;;8.82;4.38;;;;;;;6.53;73.46;102463.81;5095972;27;106491;-36
2022/03/16 02:47:19;;;;;;;9.27;4.88;;;;;;;6.56;73.13;102481.72;5095119;27;126599;-36
2022/03/16 02:49:44;;;;;;;7.18;4.10;;;;;;;6.56;73.81;102471.84;5095404;27;116108;-35
2022/03/16 02:52:11;;;;;;;6.38;4.45;;;;;;;6.50;73.23;102460.28;5078071;27;96742;-36
2022/03/16 02:54:36;;;;;;;9.57;4.90;;;;;;;6.46;73.26;102454.09;5077256;27;100765;-36
2022/03/16 02:57:01;;;;;;;9.68;4.55;;;;;;;6.45;73.68;102452.28;5095298;27;113727;-35
2022/03/16 02:59:27;;;;;;;7.63;4.40;;;;;;;6.49;73.44;102461.22;5095829;27;96689;-36
2022/03/16 03:01:52;;;;;;;8.27;4.18;;;;;;;6.44;72.91;102452.34;5077530;27;96840;-36
2022/03/16 03:04:18;;;;;;;11.18;5.30;;;;;;;6.44;73.74;102452.34;5094651;27;119021;-36
2022/03/16 03:06:43;;;;;;;8.85;4.93;;;;;;;6.32;74.01;102443.56;5095172;27;127182;-35
2022/03/16 03:09:08;;;;;;;8.65;4.28;;;;;;;6.35;74.46;102448.00;5095457;27;117024;-35
2022/03/16 03:11:34;;;;;;;9.70;5.05;;;;;;;6.27;74.57;102433.78;5095533;27;101619;-36
2022/03/16 03:13:59;;;;;;;8.50;4.55;;;;;;;6.27;74.27;102445.47;5094953;27;119850;-35
2022/03/16 03:16:24;;;;;;;12.32;5.43;;;;;;;6.35;74.12;102445.31;5096098;27;97764;-36
2022/03/16 03:18:50;;;;;;;7.82;4.80;;;;;;;6.24;73.82;102432.03;5096216;27;96653;-36
2022/03/16 03:21:15;;;;;;;10.18;4.53;;;;;;;6.21;74.37;102436.59;5095590;27;96864;-36
2022/03/16 03:23:40;;;;;;;7.13;4.28;;;;;;;6.25;74.68;102441.03;5095167;27;97987;-36
2022/03/16 03:26:06;;;;;;;9.55;4.50;;;;;;;6.15;74.11;102435.81;5094900;27;118054;-36
2022/03/16 03:28:31;;;;;;;9.20;5.00;;;;;;;6.11;74.01;102426.00;5095860;27;96654;-36
2022/03/16 03:30:56;;;;;;;8.70;5.07;;;;;;;6.09;74.09;102435.03;5095981;27;96724;-36
2022/03/16 03:33:22;;;;;;;6.43;4.05;;;;;;;5.96;74.80;102418.22;5095585;27;97976;-35
2022/03/16 03:35:49;;;;;;;10.30;4.05;;;;;;;5.95;75.45;102427.19;5095534;27;96760;-36
2022/03/16 03:38:14;;;;;;;7.47;5.10;;;;;;;5.98;74.29;102445.06;5095648;27;96820;-36
2022/03/16 03:40:40;;;;;;;11.95;5.57;;;;;;;5.91;75.59;102425.41;5096104;27;96861;-36
2022/03/16 03:43:05;;;;;;;6.40;4.15;;;;;;;5.98;75.76;102445.06;5098358;27;97384;-36
2022/03/16 03:45:40;;;;;;;9.25;4.97;;;;;;;5.92;75.49;102449.59;5098967;27;97139;-36
2022/03/16 03:48:05;;;;;;;7.22;4.35;;;;;;;5.88;74.64;102437.09;5098686;27;96590;-36
2022/03/16 03:50:30;;;;;;;8.73;4.22;;;;;;;5.92;74.25;102448.72;5099400;27;96830;-36
2022/03/16 03:52:56;;;;;;;7.03;4.25;;;;;;;5.81;74.16;102430.06;5080188;27;99378;-36
2022/03/16 03:55:22;;;;;;;1.65;1.52;;;;;;;5.82;76.07;102447.97;5098606;27;103904;-35
2022/03/16 03:57:48;;;;;;;6.53;3.35;;;;;;;5.73;75.48;102434.69;5099101;27;96616;-35
2022/03/16 04:00:14;;;;;;;10.90;5.00;;;;;;;5.71;76.46;102442.75;5099177;27;96756;-36
2022/03/16 04:02:46;;;;;;;6.63;3.95;;;;;;;5.80;75.98;102449.81;5098443;27;99655;-36
2022/03/16 04:05:11;;;;;;;6.05;4.47;;;;;;;5.70;76.53;102438.31;5079462;27;100669;-35
2022/03/16 04:07:37;;;;;;;6.05;4.20;;;;;;;5.73;75.40;102437.38;5098721;27;96561;-35
2022/03/16 04:10:02;;;;;;;8.90;5.22;;;;;;;5.81;75.24;102443.50;5099117;27;96820;-35
2022/03/16 04:12:28;;;;;;;7.78;5.07;;;;;;;5.83;75.78;102454.25;5098059;27;97451;-35
2022/03/16 04:14:53;;;;;;;8.07;4.35;;;;;;;5.77;75.74;102444.47;5079825;27;99863;-36
2022/03/16 04:17:18;;;;;;;6.10;4.30;;;;;;;5.75;75.60;102441.81;5098557;27;96603;-35
2022/03/16 04:19:43;;;;;;;5.55;3.38;;;;;;;5.76;74.88;102445.38;5097855;27;116406;-36
2022/03/16 04:22:11;;;;;;;4.30;2.97;;;;;;;5.72;75.26;102443.63;5097487;27;126847;-36
2022/03/16 04:24:36;;;;;;;5.60;3.47;;;;;;;5.68;75.91;102442.81;5098342;27;97958;-36
2022/03/16 04:27:01;;;;;;;4.78;3.58;;;;;;;5.62;75.46;102433.94;5098695;27;96481;-35
2022/03/16 04:29:27;;;;;;;7.30;3.28;;;;;;;5.56;76.28;102444.81;5099026;27;96856;-35
2022/03/16 04:31:52;;;;;;;8.93;3.92;;;;;;;5.67;76.12;102459.88;5097355;27;119933;-36
2022/03/16 04:34:17;;;;;;;8.70;3.25;;;;;;;5.53;77.53;102443.06;5097022;27;125445;-35
2022/03/16 04:36:43;;;;;;;6.28;3.58;;;;;;;5.56;76.98;102459.13;5096916;27;117747;-35
2022/03/16 04:39:08;;;;;;;4.05;2.78;;;;;;;5.44;77.07;102435.13;5098203;27;96823;-36
2022/03/16 04:41:33;;;;;;;5.78;3.92;;;;;;;5.54;76.44;102455.56;5097495;27;105340;-35
2022/03/16 04:43:59;;;;;;;7.40;4.40;;;;;;;5.46;76.83;102439.56;5097733;27;104105;-35
2022/03/16 04:46:24;;;;;;;8.80;2.80;;;;;;;5.52;75.98;102446.63;5098078;27;99046;-36
2022/03/16 04:48:49;;;;;;;6.40;3.85;;;;;;;5.46;76.23;102426.13;5097407;27;107581;-35
2022/03/16 04:51:14;;;;;;;5.85;3.30;;;;;;;5.51;77.24;102437.69;5097340;27;120860;-35
2022/03/16 04:53:40;;;;;;;12.07;5.30;;;;;;;5.54;75.35;102428.69;5098141;27;98185;-36
2022/03/16 04:56:05;;;;;;;10.43;3.53;;;;;;;5.51;76.59;102442.19;5097092;27;117178;-35
2022/03/16 04:58:31;;;;;;;8.43;3.97;;;;;;;5.49;76.53;102426.06;5098201;27;96728;-35
2022/03/16 05:00:57;;;;;;;5.88;3.58;;;;;;;5.49;76.50;102431.44;5078528;27;101021;-35
2022/03/16 05:03:22;;;;;;;5.82;4.43;;;;;;;5.49;75.73;102427.88;5097460;27;97192;-35
2022/03/16 05:05:48;;;;;;;4.45;2.88;;;;;;;5.50;76.88;102437.72;5097762;27;96799;-36
2022/03/16 05:08:13;;;;;;;5.22;3.38;;;;;;;5.51;75.35;102431.44;5097798;27;96792;-36
2022/03/16 05:10:38;;;;;;;5.93;3.92;;;;;;;5.43;75.97;102423.47;5079248;27;99201;-35
2022/03/16 05:13:04;;;;;;;6.32;2.90;;;;;;;5.45;77.04;102427.03;5096960;27;127284;-35
2022/03/16 05:15:29;;;;;;;5.63;2.47;;;;;;;5.35;76.25;102432.56;5098014;27;96619;-35
2022/03/16 05:17:54;;;;;;;4.22;3.33;;;;;;;5.26;77.37;102422.84;5097891;27;96883;-35
2022/03/16 05:20:20;;;;;;;6.95;3.22;;;;;;;5.28;76.41;102429.97;5097337;27;106670;-35
2022/03/16 05:22:51;;;;;;;7.80;4.25;;;;;;;5.24;75.72;102428.25;5097661;27;97771;-35
2022/03/16 05:25:23;;;;;;;3.22;2.22;;;;;;;5.22;77.24;102435.44;5078477;27;96616;-35
2022/03/16 05:27:49;;;;;;;5.18;3.08;;;;;;;5.18;77.58;102428.31;5078896;27;96813;-36
2022/03/16 05:30:14;;;;;;;2.92;1.92;;;;;;;5.21;77.97;102430.94;5078435;27;101280;-35
2022/03/16 05:32:41;;;;;;;7.43;3.70;;;;;;;5.18;77.25;102432.81;5097098;27;98884;-36
2022/03/16 05:35:12;;;;;;;6.68;3.40;;;;;;;5.11;77.94;102421.25;5078900;27;96457;-36
2022/03/16 05:37:38;;;;;;;5.63;3.00;;;;;;;5.10;77.38;102430.19;5078894;27;96779;-36
2022/03/16 05:40:04;;;;;;;7.55;4.28;;;;;;;5.08;77.24;102418.63;5096869;27;99102;-36
2022/03/16 05:42:30;;;;;;;3.55;2.38;;;;;;;5.10;77.30;102424.81;5097347;27;99181;-36
2022/03/16 05:44:55;;;;;;;4.10;2.53;;;;;;;5.08;76.87;102416.81;5078334;27;100011;-36
2022/03/16 05:47:24;;;;;;;5.93;3.47;;;;;;;5.09;77.53;102434.69;5078814;27;96892;-36
2022/03/16 05:49:51;;;;;;;6.40;4.00;;;;;;;5.11;77.24;102434.69;5077782;27;98799;-36
2022/03/16 05:52:21;;;;;;;9.35;5.07;;;;;;;5.09;76.60;102432.00;5078310;27;101034;-36
2022/03/16 05:54:46;;;;;;;4.95;3.20;;;;;;;4.98;76.31;102417.84;5078547;27;96594;-36
2022/03/16 05:57:13;;;;;;;3.83;2.65;;;;;;;5.03;78.20;102433.88;5097188;27;96791;-36
2022/03/16 05:59:39;;;;;;;6.57;3.67;;;;;;;5.02;78.19;102426.75;5096690;27;98011;-35
2022/03/16 06:02:05;;;;;;;4.65;3.20;;;;;;;4.99;77.95;102438.41;5096595;27;99296;-36
2022/03/16 06:04:30;;;;;;;3.92;3.00;;;;;;;4.96;78.24;102437.53;5076075;27;118596;-36
2022/03/16 06:06:55;;;;;;;6.68;3.47;;;;;;;4.95;78.25;102433.97;5096686;27;116727;-36
2022/03/16 06:09:20;;;;;;;2.85;1.90;;;;;;;4.88;79.05;102425.09;5096855;27;97987;-35
2022/03/16 06:11:46;;;;;;;4.00;2.70;;;;;;;4.93;79.52;102441.16;5076883;27;127681;-36
2022/03/16 06:14:11;;;;;;;5.30;3.17;;;;;;;4.84;77.91;102435.94;5095102;27;111721;-36
2022/03/16 06:16:36;;;;;;;5.28;3.10;;;;;;;4.87;79.00;102427.84;5095735;27;117739;-35
2022/03/16 06:19:01;;;;;;;12.68;3.72;;;;;;;4.91;78.97;102426.91;5095362;27;128233;-36
2022/03/16 06:21:27;;;;;;;4.47;2.55;;;;;;;4.96;79.05;102432.19;5095887;27;118415;-35
2022/03/16 06:23:52;;;;;;;4.95;3.63;;;;;;;4.99;77.70;102429.47;5078232;27;96543;-36
2022/03/16 06:26:17;;;;;;;4.10;2.83;;;;;;;5.05;78.00;102441.03;5077147;27;116591;-35
2022/03/16 06:28:43;;;;;;;6.97;2.58;;;;;;;5.03;79.07;102429.41;5095760;27;110155;-36
2022/03/16 06:31:08;;;;;;;3.13;2.10;;;;;;;5.01;79.59;102427.66;5096730;27;97279;-35
2022/03/16 06:33:34;;;;;;;4.20;3.17;;;;;;;5.07;77.98;102435.63;5096693;27;96611;-35
2022/03/16 06:35:59;;;;;;;3.90;2.63;;;;;;;5.06;79.81;102424.00;5096552;27;96728;-36
2022/03/16 06:38:25;;;;;;;6.25;3.95;;;;;;;5.03;79.42;102418.69;5094423;27;125416;-35
2022/03/16 06:40:50;;;;;;;5.00;2.85;;;;;;;5.05;80.54;102421.31;5095427;27;124994;-35
2022/03/16 06:43:15;;;;;;;6.43;2.75;;;;;;;5.11;79.82;102419.44;5095688;27;108120;-36
2022/03/16 06:45:40;;;;;;;6.53;3.75;;;;;;;5.16;78.99;102411.31;5096699;27;96884;-36
2022/03/16 06:48:06;;;;;;;4.88;2.95;;;;;;;5.24;79.31;102416.59;5095767;27;99288;-35
2022/03/16 06:50:31;;;;;;;3.78;2.65;;;;;;;5.28;79.41;102408.47;5095514;27;114861;-36
2022/03/16 06:52:58;;;;;;;4.20;2.53;;;;;;;5.33;78.19;102413.78;5077704;27;96970;-36
2022/03/16 06:55:23;;;;;;;7.38;3.90;;;;;;;5.41;78.72;102408.28;5078077;27;96772;-36
2022/03/16 06:57:49;;;;;;;6.32;3.13;;;;;;;5.44;78.38;102400.19;5095727;27;97951;-35
2022/03/16 07:00:15;;;;;;;4.25;3.08;;;;;;;5.58;77.90;102416.09;5095924;27;97742;-35
2022/03/16 07:03:10;;;;;;;5.35;3.25;;;;;;;5.64;78.04;102418.69;5095735;27;96510;-36
2022/03/16 07:05:38;;;;;;;3.63;2.55;;;;;;;5.64;78.69;102430.31;5077504;27;96911;-35
2022/03/16 07:08:07;;;;;;;5.25;2.63;;;;;;;5.68;78.43;102440.13;5077105;27;100927;-36
2022/03/16 07:10:33;;;;;;;6.35;4.57;;;;;;;5.79;77.44;102439.94;5076977;27;100982;-36
2022/03/16 07:12:59;;;;;;;6.18;3.97;;;;;;;5.94;76.33;102437.06;5077534;27;96646;-36
2022/03/16 07:15:25;;;;;;;6.90;3.53;;;;;;;6.02;76.67;102428.84;5077316;27;96610;-36
2022/03/16 07:17:51;;;;;;;2.30;1.95;;;;;;;6.14;77.21;102433.13;5079710;27;100961;-36
2022/03/16 07:20:16;;;;;;;5.95;3.00;;;;;;;6.10;76.40;102420.63;5099540;27;99404;-36
2022/03/16 07:22:42;;;;;;;7.60;3.63;;;;;;;6.24;77.26;102423.09;5099462;27;96525;-36
2022/03/16 07:25:09;;;;;;;4.40;2.08;;;;;;;6.30;76.24;102413.09;5081033;27;96895;-35
2022/03/16 07:27:50;;;;;;;5.95;2.85;;;;;;;6.34;77.02;102401.38;5063097;27;100923;-36
2022/03/16 07:30:16;;;;;;;3.78;2.00;;;;;;;6.39;76.09;102393.22;5099212;27;97965;-35
2022/03/16 07:32:41;;;;;;;4.88;2.60;;;;;;;6.54;76.46;102402.78;5099819;27;96578;-36
2022/03/16 07:35:09;;;;;;;6.10;3.83;;;;;;;6.63;76.59;102412.50;5098904;27;116541;-36
2022/03/16 07:37:35;;;;;;;5.80;3.13;;;;;;;6.77;75.78;102410.41;5080423;27;101003;-36
2022/03/16 07:40:01;;;;;;;6.38;3.22;;;;;;;6.76;75.66;102401.44;5098691;27;99236;-36
2022/03/16 07:42:26;;;;;;;5.10;2.13;;;;;;;6.79;75.21;102396.00;5099843;27;96543;-36
2022/03/16 07:44:51;;;;;;;6.03;3.58;;;;;;;6.86;75.07;102398.53;5099874;27;96737;-35
2022/03/16 07:47:17;;;;;;;6.00;3.17;;;;;;;6.95;74.81;102406.44;5098797;27;99259;-36
2022/03/16 07:49:42;;;;;;;6.55;3.53;;;;;;;7.05;74.65;102401.72;5097926;27;127543;-35
2022/03/16 07:52:08;;;;;;;4.43;2.72;;;;;;;7.05;73.96;102408.00;5098351;27;96426;-36
2022/03/16 07:54:33;;;;;;;6.35;3.75;;;;;;;7.18;74.02;102420.31;5099219;27;96525;-36
2022/03/16 07:56:59;;;;;;;6.30;3.70;;;;;;;7.26;73.53;102416.53;5098701;27;97851;-36
2022/03/16 07:59:24;;;;;;;6.97;3.40;;;;;;;7.30;73.79;102411.06;5098570;27;98821;-35
2022/03/16 08:01:49;;;;;;;6.72;3.88;;;;;;;7.41;73.74;102425.19;5099142;27;96517;-36
2022/03/16 08:04:15;;;;;;;3.75;2.00;;;;;;;7.42;73.83;102426.94;5097523;27;113443;-36
2022/03/16 08:06:41;;;;;;;2.83;2.08;;;;;;;7.42;73.24;102429.63;5098383;27;97903;-35
2022/03/16 08:09:06;;;;;;;2.90;2.33;;;;;;;7.46;73.63;102425.09;5099111;27;97458;-36
2022/03/16 08:11:31;;;;;;;6.70;3.75;;;;;;;7.45;73.19;102423.28;5098565;27;96916;-35
2022/03/16 08:13:57;;;;;;;6.82;3.60;;;;;;;7.51;72.71;102423.16;5099117;27;96784;-36
2022/03/16 08:16:23;;;;;;;6.35;3.65;;;;;;;7.69;73.15;102437.13;5097021;27;126852;-35
2022/03/16 08:18:48;;;;;;;5.95;3.33;;;;;;;7.82;72.34;102428.69;5079869;27;100724;-36
2022/03/16 08:21:14;;;;;;;3.15;2.03;;;;;;;7.90;72.38;102414.13;5098217;27;98067;-36
2022/03/16 08:23:39;;;;;;;5.32;1.95;;;;;;;7.92;71.91;102407.78;5098165;27;106107;-35
2022/03/16 08:26:04;;;;;;;6.18;3.03;;;;;;;8.00;72.20;102399.47;5097305;27;126984;-35
2022/03/16 08:28:29;;;;;;;5.18;2.22;;;;;;;8.00;72.02;102394.06;5096867;27;123065;-35
2022/03/16 08:30:55;;;;;;;3.55;2.13;;;;;;;7.97;71.84;102378.84;5097670;27;114639;-35
2022/03/16 08:33:22;;;;;;;3.97;1.77;;;;;;;8.03;71.88;102378.72;5098947;27;96569;-35
2022/03/16 08:35:47;;;;;;;6.57;3.55;;;;;;;8.06;71.62;102378.63;5098067;27;97937;-36
2022/03/16 08:38:12;;;;;;;5.72;3.63;;;;;;;8.08;71.86;102387.56;5098082;27;97858;-35
2022/03/16 08:40:38;;;;;;;3.38;2.13;;;;;;;8.02;71.67;102376.91;5098353;27;96526;-36
2022/03/16 08:43:03;;;;;;;5.47;2.97;;;;;;;8.03;71.12;102373.31;5098136;27;96845;-36
2022/03/16 08:45:28;;;;;;;4.32;2.42;;;;;;;8.07;71.21;102388.47;5097901;27;99483;-35
2022/03/16 08:47:54;;;;;;;2.63;1.88;;;;;;;8.02;71.31;102379.63;5078854;27;118086;-35
2022/03/16 08:50:19;;;;;;;3.35;2.03;;;;;;;7.99;71.56;102381.53;5098606;27;96679;-36
2022/03/16 08:52:45;;;;;;;3.30;1.73;;;;;;;8.07;71.63;102384.91;5079892;27;96756;-35
2022/03/16 08:55:14;;;;;;;6.25;2.38;;;;;;;8.09;71.11;102377.66;5097927;27;98012;-36
2022/03/16 08:57:39;;;;;;;4.18;2.80;;;;;;;8.21;71.45;102390.81;5098083;27;97978;-36
2022/03/16 09:00:05;;;;;;;2.90;1.75;;;;;;;8.23;71.30;102372.75;5079829;27;96630;-36
2022/03/16 09:02:30;;;;;;;5.72;2.88;;;;;;;8.35;70.93;102384.16;5097987;27;96758;-36
2022/03/16 09:04:56;;;;;;;2.25;1.58;;;;;;;8.36;70.67;102384.09;5096431;27;98658;-35
2022/03/16 09:07:21;;;;;;;4.93;2.22;;;;;;;8.41;70.91;102378.59;5097464;27;99173;-35
2022/03/16 09:09:46;;;;;;;4.70;2.38;;;;;;;8.48;70.71;102381.09;5098326;27;96418;-35
2022/03/16 09:12:12;;;;;;;6.10;2.58;;;;;;;8.56;70.40;102377.31;5097530;27;100661;-35
2022/03/16 09:14:38;;;;;;;4.18;2.58;;;;;;;8.61;70.20;102373.53;5097454;27;99442;-36
2022/03/16 09:17:05;;;;;;;4.43;2.92;;;;;;;8.71;70.30;102379.56;5078813;27;100782;-35
2022/03/16 09:19:30;;;;;;;3.45;2.22;;;;;;;8.69;69.65;102374.19;5079023;27;96779;-35
2022/03/16 09:21:55;;;;;;;3.58;2.22;;;;;;;8.76;70.01;102385.72;5097873;27;96839;-36
2022/03/16 09:24:22;;;;;;;2.47;1.65;;;;;;;8.77;69.81;102378.47;5097264;27;101251;-36
2022/03/16 09:26:48;;;;;;;3.00;1.83;;;;;;;8.90;69.67;102388.88;5097331;27;97799;-36
2022/03/16 09:29:13;;;;;;;5.10;2.47;;;;;;;8.96;69.68;102384.22;5095855;27;116447;-36
2022/03/16 09:31:39;;;;;;;7.13;2.05;;;;;;;8.99;69.13;102390.44;5096883;27;96785;-36
2022/03/16 09:34:07;;;;;;;3.40;2.20;;;;;;;9.14;68.94;102381.84;5077935;27;101003;-35
2022/03/16 09:36:33;;;;;;;3.88;2.40;;;;;;;9.22;68.29;102381.59;5078433;27;100567;-36
2022/03/16 09:38:59;;;;;;;5.75;2.80;;;;;;;9.32;68.27;102368.72;5077747;27;96810;-36
2022/03/16 09:41:27;;;;;;;4.82;2.30;;;;;;;9.36;68.04;102368.53;5096778;27;105843;-35
2022/03/16 09:43:54;;;;;;;4.47;2.63;;;;;;;9.41;67.58;102362.09;5096825;27;99765;-35
2022/03/16 09:46:36;;;;;;;3.50;2.28;;;;;;;9.51;67.38;102355.44;5078752;27;100698;-36
2022/03/16 09:49:05;;;;;;;4.10;2.65;;;;;;;9.60;67.44;102348.84;5097423;27;96603;-35
2022/03/16 09:51:35;;;;;;;4.18;2.45;;;;;;;9.76;67.25;102353.69;5078624;27;96779;-36
2022/03/16 09:54:05;;;;;;;2.88;1.83;;;;;;;10.07;66.12;102358.06;5096237;27;99365;-36
2022/03/16 09:56:32;;;;;;;4.75;2.88;;;;;;;10.43;65.40;102354.13;5096957;27;97653;-36
2022/03/16 09:58:57;;;;;;;8.50;2.85;;;;;;;10.53;65.34;102350.13;5096932;27;96556;-36
2022/03/16 10:01:23;;;;;;;6.93;2.30;;;;;;;10.50;65.05;102361.09;5096900;27;96811;-35
2022/03/16 10:03:49;;;;;;;6.10;2.45;;;;;;;10.52;65.26;102367.34;5096603;27;97897;-36
2022/03/16 10:06:16;;;;;;;4.07;2.35;;;;;;;10.49;64.69;102353.91;5078069;27;100677;-36
2022/03/16 10:13:13;;;;;;;3.70;2.45;;;;;;;10.59;65.29;102352.63;5096917;27;96511;-36
2022/03/16 10:14:28;;;;;;;4.63;2.40;;;;;;;10.89;64.54;102344.25;5032422;28;97190;-36
2022/03/16 10:19:48;;;;;;;7.60;3.67;;;;;;;10.95;65.40;102344.03;5096167;27;96574;-36
2022/03/16 10:22:22;;;;;;;4.85;3.10;;;;;;;10.92;64.90;102347.75;5078057;27;96837;-36
2022/03/16 10:24:47;;;;;;;6.63;3.38;;;;;;;11.01;64.84;102336.53;5077667;27;101379;-36
2022/03/16 10:27:17;;;;;;;4.18;2.58;;;;;;;11.03;64.25;102333.75;5095962;27;114494;-35
2022/03/16 10:29:42;;;;;;;6.07;2.83;;;;;;;11.09;63.71;102338.06;5077884;27;96627;-36
2022/03/16 10:32:07;;;;;;;5.70;2.95;;;;;;;11.19;64.49;102323.19;5095782;27;116312;-36
2022/03/16 10:34:33;;;;;;;8.75;3.72;;;;;;;11.58;63.68;102331.47;5096139;27;97917;-36
2022/03/16 10:37:09;;;;;;;5.05;3.13;;;;;;;12.07;62.83;102339.41;5096391;27;98814;-36
2022/03/16 10:39:36;;;;;;;8.65;3.45;;;;;;;12.49;61.84;102341.16;5096337;27;96692;-36
2022/03/16 10:47:58;;;;;;;4.63;2.30;;;;;;;12.36;61.16;102329.94;5094535;27;96815;-36
2022/03/16 10:50:23;;;;;;;8.68;3.20;;;;;;;12.61;60.17;102323.38;5077545;27;96563;-36
2022/03/16 10:52:50;;;;;;;6.85;2.83;;;;;;;12.75;60.28;102321.81;5095950;27;100145;-36
2022/03/16 10:55:19;;;;;;;7.22;2.78;;;;;;;12.89;59.72;102312.97;5076424;27;101031;-36
2022/03/16 10:57:48;;;;;;;7.70;2.40;;;;;;;12.83;60.11;102320.56;5077137;27;100954;-36
2022/03/16 11:00:16;;;;;;;5.68;3.17;;;;;;;12.80;59.86;102305.28;5077515;27;96855;-36
2022/03/16 11:02:44;;;;;;;5.53;3.15;;;;;;;12.65;60.36;102305.97;5096477;27;96915;-36
2022/03/16 11:05:10;;;;;;;7.60;3.42;;;;;;;12.60;60.69;102308.03;5076604;27;100997;-36
2022/03/16 11:07:36;;;;;;;5.78;2.97;;;;;;;12.72;60.21;102315.63;5095790;27;98952;-35
2022/03/16 11:10:02;;;;;;;6.20;2.65;;;;;;;12.82;60.51;102308.78;5095435;27;96685;-36
2022/03/16 11:15:13;;;;;;;6.38;3.42;;;;;;;13.07;59.69;102329.38;5096139;27;97107;-35
2022/03/16 11:17:39;;;;;;;9.02;3.78;;;;;;;13.06;58.61;102325.78;5077033;27;100681;-36
2022/03/16 11:20:08;;;;;;;6.78;2.85;;;;;;;13.05;59.96;102328.56;5095753;27;96497;-36
2022/03/16 11:26:00;;;;;;;6.10;3.28;;;;;;;13.03;59.47;102325.91;5096042;27;97142;-36
2022/03/16 11:28:51;;;;;;;6.70;3.22;;;;;;;13.22;59.33;102320.47;5095959;27;97818;-35
2022/03/16 11:31:23;;;;;;;4.25;2.35;;;;;;;13.22;59.76;102320.47;5077363;27;96558;-36
2022/03/16 11:33:52;;;;;;;6.68;2.45;;;;;;;13.20;59.62;102333.25;5060222;27;96776;-36
2022/03/16 11:36:38;;;;;;;8.10;2.80;;;;;;;13.21;59.04;102328.72;5076331;27;101132;-35
2022/03/16 11:39:22;;;;;;;9.40;3.30;;;;;;;13.20;59.71;102335.97;5077541;27;99178;-36
2022/03/16 11:41:55;;;;;;;6.38;3.33;;;;;;;13.02;59.43;102328.72;5096226;27;96536;-36
2022/03/16 11:44:26;;;;;;;8.23;3.53;;;;;;;13.03;59.48;102330.47;5060085;27;96741;-36